CST,Max TemperatureF,Mean TemperatureF,Min TemperatureF,Max Dew PointF,MeanDew PointF,Min DewpointF,Max Humidity, Mean Humidity, Min Humidity, Max Sea Level PressureIn, Mean Sea Level PressureIn, Min Sea Level PressureIn, Max VisibilityMiles, Mean VisibilityMiles, Min VisibilityMiles, Max Wind SpeedMPH, Mean Wind SpeedMPH, Max Gust SpeedMPH,PrecipitationIn, CloudCover, Events, WindDirDegrees
2012-11-1,61,45,29,36,29,22,85,59,32,30.04,29.98,29.90,10,10,4,13,6,15,0.00,2,,248
2012-11-2,62,54,45,40,36,33,83,59,34,30.04,29.99,29.88,10,10,9,14,5,17,0.00,0,,13
2012-11-3,69,55,40,50,39,35,82,65,48,30.12,30.02,29.93,10,10,8,20,7,25,0.00,1,,49
2012-11-4,55,46,36,38,34,30,100,71,41,30.23,30.17,30.12,10,8,3,10,4,15,0.00,1,,8
2012-11-5,50,44,38,40,37,33,89,73,56,30.16,30.10,30.05,10,8,4,13,4,16,0.09,7,Rain,80
2012-11-6,50,44,37,43,40,36,92,82,71,30.07,30.01,29.95,10,6,0,14,3,16,T,8,Fog-Rain,259
2012-11-7,49,43,36,42,39,36,92,79,66,30.18,30.05,29.93,10,9,6,17,6,22,T,7,Rain,327
2012-11-8,56,43,29,43,34,28,100,75,50,30.28,30.21,30.15,10,5,0,10,3,13,0.00,1,Fog,186
2012-11-9,69,53,36,46,40,34,85,65,44,30.20,30.12,30.06,10,10,8,14,7,21,0.00,1,,184
2012-11-10,72,63,53,54,46,40,71,57,43,30.18,30.12,30.07,10,10,10,18,10,25,0.00,0,,192
2012-11-11,71,62,53,57,51,42,90,70,49,30.10,30.01,29.93,10,8,2,28,15,41,0.55,5,Rain,186
2012-11-12,53,42,31,52,35,19,100,67,34,30.46,30.25,30.01,10,8,2,18,7,26,0.78,5,Rain,298
2012-11-13,50,38,26,30,25,21,92,63,33,30.54,30.48,30.44,10,10,10,10,3,14,0.00,0,,39
2012-11-14,47,38,28,30,28,26,92,71,49,30.47,30.41,30.35,10,10,10,10,3,13,0.00,0,,48
2012-11-15,53,40,26,33,29,24,92,68,44,30.40,30.35,30.31,10,8,3,8,2,10,0.00,0,,7
2012-11-16,57,43,28,34,29,26,92,61,30,30.45,30.41,30.37,10,8,3,10,3,14,0.00,0,,43
2012-11-17,60,44,27,36,30,25,92,62,31,30.50,30.43,30.39,10,10,8,10,2,14,0.00,0,,58
2012-11-18,63,46,29,38,33,26,100,67,34,30.42,30.37,30.32,10,9,4,8,1,10,0.00,0,,160
2012-11-19,65,50,34,43,36,31,92,63,34,30.32,30.25,30.14,10,9,6,9,2,13,0.00,4,,222
2012-11-20,68,57,45,50,45,40,89,69,48,30.16,30.11,30.04,10,9,5,13,6,23,0.00,3,,246
2012-11-21,65,51,36,49,42,37,100,74,48,30.27,30.20,30.15,8,3,0,9,2,12,0.00,0,Fog,312
2012-11-22,65,49,33,47,39,32,100,74,48,30.20,30.15,30.06,10,5,0,15,5,22,0.00,0,Fog,203
2012-11-23,57,45,33,50,33,20,89,67,44,30.33,30.21,30.06,10,10,5,20,10,28,0.02,2,Rain,309
2012-11-24,39,32,25,22,19,17,81,63,44,30.37,30.27,30.13,10,10,10,14,5,22,0.00,0,,288
2012-11-25,57,44,30,32,26,20,76,56,35,30.12,30.04,29.96,10,10,10,18,7,22,0.00,0,,211
2012-11-26,52,43,33,43,37,29,92,71,50,30.28,30.14,30.05,10,7,2,21,5,29,0.60,7,Rain,22
2012-11-27,44,35,25,31,26,23,92,73,53,30.40,30.35,30.28,10,9,5,17,6,23,0.00,1,,4
2012-11-28,50,36,21,30,25,19,96,69,42,30.47,30.41,30.37,10,8,4,7,1,9,0.00,0,,234
2012-11-29,56,41,26,31,28,23,85,60,35,30.38,30.29,30.22,10,10,8,15,5,20,0.00,0,,191
2012-11-30,62,52,42,44,38,27,77,60,43,30.25,30.19,30.14,10,10,8,16,7,21,0.00,2,,195